createdAt,value
2019-02-17T00:02:08.173Z,20.93
2019-02-17T00:04:37.438Z,19.50
2019-02-17T00:07:06.977Z,19.67
2019-02-17T00:09:36.271Z,20.13
2019-02-17T00:12:05.698Z,18.27
2019-02-17T00:14:35.035Z,19.83
2019-02-17T00:17:04.324Z,19.80
2019-02-17T00:19:33.708Z,18.73
2019-02-17T00:22:03.000Z,19.23
2019-02-17T00:24:32.276Z,22.27
2019-02-17T00:27:01.638Z,21.57
2019-02-17T00:29:30.940Z,19.67
2019-02-17T00:32:00.194Z,21.33
2019-02-17T00:34:29.556Z,21.47
2019-02-17T00:36:58.842Z,22.00
2019-02-17T00:39:28.157Z,22.50
2019-02-17T00:41:57.491Z,21.47
2019-02-17T00:44:27.069Z,23.03
2019-02-17T00:46:56.391Z,21.33
2019-02-17T00:49:26.180Z,20.07
2019-02-17T00:51:55.477Z,21.47
2019-02-17T00:54:24.694Z,23.63
2019-02-17T00:56:53.989Z,23.73
2019-02-17T00:59:23.270Z,20.40
2019-02-17T01:01:52.541Z,21.90
2019-02-17T01:04:21.832Z,19.80
2019-02-17T01:06:51.162Z,26.83
2019-02-17T01:09:20.538Z,22.77
2019-02-17T01:11:49.846Z,25.57
2019-02-17T01:14:19.322Z,19.67
2019-02-17T01:16:48.606Z,20.67
2019-02-17T01:19:17.985Z,24.20
2019-02-17T01:21:47.657Z,21.30
2019-02-17T01:24:16.879Z,21.73
2019-02-17T01:26:46.167Z,23.77
2019-02-17T01:29:20.526Z,22.07
2019-02-17T01:31:48.014Z,19.43
2019-02-17T01:34:17.353Z,21.27
2019-02-17T01:36:46.651Z,18.20
2019-02-17T01:39:15.925Z,21.53
2019-02-17T01:41:45.248Z,20.90
2019-02-17T01:44:14.529Z,20.43
2019-02-17T01:46:43.790Z,21.87
2019-02-17T01:49:13.043Z,21.30
2019-02-17T01:51:42.435Z,23.30
2019-02-17T01:54:11.755Z,26.13
2019-02-17T01:56:41.077Z,20.37
2019-02-17T01:59:10.343Z,21.63
2019-02-17T02:01:39.627Z,20.23
2019-02-17T02:04:08.974Z,20.37
2019-02-17T02:06:38.314Z,16.00
2019-02-17T02:09:10.049Z,17.90
2019-02-17T02:11:39.395Z,22.17
2019-02-17T02:14:08.720Z,18.60
2019-02-17T02:16:38.014Z,22.27
2019-02-17T02:19:07.285Z,18.60
2019-02-17T02:21:36.544Z,19.13
2019-02-17T02:24:05.833Z,16.83
2019-02-17T02:26:35.175Z,18.93
2019-02-17T02:29:04.475Z,19.33
2019-02-17T02:31:33.758Z,20.70
2019-02-17T02:34:03.103Z,22.93
2019-02-17T02:36:32.436Z,21.50
2019-02-17T02:39:01.691Z,19.43
2019-02-17T02:41:34.662Z,19.23
2019-02-17T02:44:01.908Z,19.30
2019-02-17T02:46:31.183Z,17.23
2019-02-17T02:49:00.445Z,16.73
2019-02-17T02:51:29.747Z,17.17
2019-02-17T02:53:59.094Z,19.23
2019-02-17T02:56:28.451Z,17.60
2019-02-17T02:58:57.723Z,21.00
2019-02-17T03:01:27.099Z,22.57
2019-02-17T03:03:56.456Z,18.90
2019-02-17T03:06:43.269Z,17.83
2019-02-17T03:09:12.679Z,23.03
2019-02-17T03:11:41.982Z,21.10
2019-02-17T03:14:11.313Z,22.77
2019-02-17T03:16:40.672Z,20.17
2019-02-17T03:19:10.034Z,21.53
2019-02-17T03:21:39.219Z,19.67
2019-02-17T03:24:08.577Z,20.23
2019-02-17T03:26:37.819Z,21.00
2019-02-17T03:29:07.102Z,20.27
2019-02-17T03:31:36.315Z,23.40
2019-02-17T03:34:05.586Z,22.97
2019-02-17T03:36:34.862Z,20.73
2019-02-17T03:39:06.025Z,22.13
2019-02-17T03:41:38.497Z,20.03
2019-02-17T03:44:07.754Z,24.80
2019-02-17T03:46:37.131Z,17.73
2019-02-17T03:49:06.447Z,20.70
2019-02-17T03:51:35.717Z,22.33
2019-02-17T03:54:04.996Z,21.17
2019-02-17T03:56:34.280Z,22.17
2019-02-17T03:59:03.656Z,20.40
2019-02-17T04:01:32.943Z,19.60
2019-02-17T04:04:02.155Z,20.57
2019-02-17T04:06:31.412Z,21.60
2019-02-17T04:09:00.635Z,22.23
2019-02-17T04:11:29.818Z,23.20
2019-02-17T04:13:59.114Z,23.57
2019-02-17T04:16:28.469Z,21.43
2019-02-17T04:18:57.758Z,22.90
2019-02-17T04:21:27.038Z,20.80
2019-02-17T04:23:56.371Z,25.30
2019-02-17T04:26:25.723Z,20.50
2019-02-17T04:28:54.988Z,24.77
2019-02-17T04:31:24.179Z,24.57
2019-02-17T04:33:53.461Z,22.73
2019-02-17T04:36:22.738Z,21.80
2019-02-17T04:38:52.024Z,26.87
2019-02-17T04:41:21.333Z,25.53
2019-02-17T04:43:50.621Z,24.83
2019-02-17T04:46:19.878Z,24.07
2019-02-17T04:48:49.217Z,23.50
2019-02-17T04:51:18.501Z,24.63
2019-02-17T04:53:47.810Z,24.97
2019-02-17T04:56:17.061Z,22.47
2019-02-17T04:58:46.346Z,25.20
2019-02-17T05:01:15.645Z,21.60
2019-02-17T05:03:44.909Z,26.03
2019-02-17T05:06:14.212Z,23.03
2019-02-17T05:08:43.561Z,20.83
2019-02-17T05:11:12.815Z,24.40
2019-02-17T05:13:42.179Z,18.73
2019-02-17T05:16:11.457Z,20.37
2019-02-17T05:18:40.750Z,21.70
2019-02-17T05:21:10.027Z,22.30
2019-02-17T05:23:39.297Z,23.30
2019-02-17T05:26:08.550Z,23.10
2019-02-17T05:28:37.805Z,22.87
2019-02-17T05:31:07.102Z,23.47
2019-02-17T05:33:37.625Z,24.00
2019-02-17T05:36:07.008Z,20.47
2019-02-17T05:38:36.259Z,23.00
2019-02-17T05:41:05.660Z,21.17
2019-02-17T05:43:35.031Z,20.93
2019-02-17T05:46:05.171Z,22.57
2019-02-17T05:48:34.363Z,25.37
2019-02-17T05:51:03.593Z,24.30
2019-02-17T05:53:32.885Z,23.70
2019-02-17T05:56:02.132Z,26.33
2019-02-17T05:58:31.444Z,22.67
2019-02-17T06:01:03.994Z,21.53
2019-02-17T06:03:31.754Z,29.47
2019-02-17T06:06:01.057Z,36.87
2019-02-17T06:08:30.472Z,35.33
2019-02-17T06:10:59.834Z,30.43
2019-02-17T06:13:29.360Z,23.27
2019-02-17T06:15:58.711Z,28.83
2019-02-17T06:18:28.105Z,28.33
2019-02-17T06:20:57.560Z,25.37
2019-02-17T06:23:27.041Z,26.03
2019-02-17T06:25:56.441Z,24.00
2019-02-17T06:28:25.938Z,26.47
2019-02-17T06:30:55.324Z,25.43
2019-02-17T06:33:24.973Z,32.20
2019-02-17T06:35:54.846Z,30.93
2019-02-17T06:38:24.523Z,26.53
2019-02-17T06:40:53.987Z,29.00
2019-02-17T06:43:23.419Z,29.83
2019-02-17T06:45:52.836Z,30.37
2019-02-17T06:48:22.432Z,26.03
2019-02-17T06:50:51.966Z,23.13
2019-02-17T06:53:24.162Z,26.30
2019-02-17T06:56:09.181Z,29.77
2019-02-17T06:58:38.682Z,29.80
2019-02-17T07:01:08.062Z,26.13
2019-02-17T07:03:38.111Z,25.07
2019-02-17T07:06:22.877Z,25.63
2019-02-17T07:08:52.539Z,24.87
2019-02-17T07:11:23.445Z,25.37
2019-02-17T07:13:53.047Z,26.07
2019-02-17T07:16:23.618Z,27.90
2019-02-17T07:18:53.253Z,30.03
2019-02-17T07:21:22.823Z,24.50
2019-02-17T07:23:52.086Z,26.53
2019-02-17T07:26:21.427Z,26.73
2019-02-17T07:28:51.155Z,26.43
2019-02-17T07:31:22.619Z,25.57
2019-02-17T07:33:52.598Z,27.17
2019-02-17T07:36:22.709Z,29.00
2019-02-17T07:38:52.617Z,26.37
2019-02-17T07:41:22.414Z,26.87
2019-02-17T07:43:52.437Z,22.33
2019-02-17T07:46:23.612Z,24.27
2019-02-17T07:48:54.869Z,25.50
2019-02-17T07:51:24.691Z,24.90
2019-02-17T07:53:55.983Z,23.67
2019-02-17T07:56:25.769Z,27.97
2019-02-17T07:58:57.697Z,29.37
2019-02-17T08:01:27.847Z,27.57
2019-02-17T08:03:57.607Z,31.40
2019-02-17T08:06:27.819Z,30.37
2019-02-17T08:08:59.898Z,28.23
2019-02-17T08:11:29.843Z,31.13
2019-02-17T08:13:59.388Z,27.67
2019-02-17T08:16:29.032Z,29.03
2019-02-17T08:18:58.424Z,26.33
2019-02-17T08:21:28.074Z,22.73
2019-02-17T08:23:57.746Z,24.70
2019-02-17T08:26:27.350Z,21.80
2019-02-17T08:28:56.750Z,22.20
2019-02-17T08:31:26.294Z,27.67
2019-02-17T08:33:56.016Z,21.67
2019-02-17T08:36:25.390Z,21.83
2019-02-17T08:38:56.647Z,24.87
2019-02-17T08:41:26.346Z,20.93
2019-02-17T08:43:58.286Z,21.03
2019-02-17T08:46:29.546Z,20.93
2019-02-17T08:48:59.453Z,21.10
2019-02-17T08:51:28.958Z,47.80
2019-02-17T08:53:59.432Z,30.73
2019-02-17T08:56:28.955Z,25.73
2019-02-17T08:58:58.469Z,22.97
2019-02-17T09:01:27.863Z,20.30
2019-02-17T09:03:57.334Z,23.53
2019-02-17T09:06:27.465Z,20.20
2019-02-17T09:08:57.168Z,20.63
2019-02-17T09:11:27.862Z,23.03
2019-02-17T09:13:57.583Z,20.70
2019-02-17T09:16:27.135Z,21.43
2019-02-17T09:18:56.592Z,25.40
2019-02-17T09:21:25.937Z,40.93
2019-02-17T09:23:55.451Z,38.37
2019-02-17T09:26:24.763Z,46.20
2019-02-17T09:28:54.246Z,33.00
2019-02-17T09:31:26.456Z,21.00
2019-02-17T09:33:55.789Z,37.43
2019-02-17T09:36:25.446Z,27.30
2019-02-17T09:38:54.995Z,22.23
2019-02-17T09:41:24.618Z,23.47
2019-02-17T09:43:54.031Z,24.40
2019-02-17T09:46:23.294Z,23.00
2019-02-17T09:48:52.624Z,23.60
2019-02-17T09:51:21.956Z,23.13
2019-02-17T09:53:51.314Z,26.07
2019-02-17T09:56:20.724Z,31.17
2019-02-17T09:58:50.554Z,30.70
2019-02-17T10:01:20.071Z,22.23
2019-02-17T10:03:49.534Z,21.90
2019-02-17T10:06:19.121Z,18.40
2019-02-17T10:08:48.541Z,22.13
2019-02-17T10:11:19.968Z,20.33
2019-02-17T10:13:51.246Z,22.43
2019-02-17T10:16:20.684Z,23.67
2019-02-17T10:18:50.089Z,22.97
2019-02-17T10:21:21.146Z,21.67
2019-02-17T10:23:50.663Z,21.63
2019-02-17T10:26:20.363Z,24.13
2019-02-17T10:28:50.256Z,24.67
2019-02-17T10:31:19.704Z,23.30
2019-02-17T10:33:49.328Z,22.53
2019-02-17T10:36:19.003Z,23.03
2019-02-17T10:38:48.413Z,23.90
2019-02-17T10:41:19.583Z,23.23
2019-02-17T10:43:49.235Z,23.63
2019-02-17T10:46:18.674Z,29.90
2019-02-17T10:48:48.140Z,23.63
2019-02-17T10:51:17.533Z,24.70
2019-02-17T10:53:48.491Z,22.87
2019-02-17T10:56:17.900Z,23.80
2019-02-17T10:58:47.397Z,27.80
2019-02-17T11:01:16.780Z,27.77
2019-02-17T11:04:01.335Z,25.33
2019-02-17T11:06:30.795Z,27.00
2019-02-17T11:09:00.239Z,24.90
2019-02-17T11:11:29.739Z,24.60
2019-02-17T11:13:59.272Z,26.10
2019-02-17T11:16:29.276Z,27.47
2019-02-17T11:18:58.530Z,28.43
2019-02-17T11:21:28.018Z,28.70
2019-02-17T11:23:57.854Z,29.03
2019-02-17T11:26:28.826Z,31.00
2019-02-17T11:28:58.271Z,29.50
2019-02-17T11:31:27.763Z,25.70
2019-02-17T11:33:57.025Z,26.10
2019-02-17T11:36:27.214Z,27.30
2019-02-17T11:38:56.515Z,28.07
2019-02-17T11:41:26.085Z,28.43
2019-02-17T11:43:55.625Z,29.63
2019-02-17T11:46:25.053Z,28.53
2019-02-17T11:48:54.423Z,29.17
2019-02-17T11:51:24.146Z,29.40
2019-02-17T11:53:53.539Z,31.77
2019-02-17T11:56:22.974Z,30.87
2019-02-17T11:58:53.699Z,30.87
2019-02-17T12:01:23.151Z,31.97
2019-02-17T12:03:52.667Z,31.80
2019-02-17T12:06:22.514Z,29.53
2019-02-17T12:08:52.297Z,32.97
2019-02-17T12:11:21.841Z,29.10
2019-02-17T12:13:51.442Z,27.73
2019-02-17T12:16:21.434Z,26.10
2019-02-17T12:18:51.189Z,29.00
2019-02-17T12:21:34.122Z,27.20
2019-02-17T12:24:31.727Z,26.00
2019-02-17T12:27:06.527Z,25.73
2019-02-17T12:29:40.378Z,23.87
2019-02-17T12:32:09.921Z,27.23
2019-02-17T12:34:41.373Z,25.30
2019-02-17T12:37:11.274Z,27.87
2019-02-17T12:39:41.127Z,25.33
2019-02-17T12:42:10.643Z,25.97
2019-02-17T12:44:40.373Z,27.90
2019-02-17T12:47:12.911Z,26.00
2019-02-17T12:49:42.670Z,23.67
2019-02-17T12:52:12.240Z,26.67
2019-02-17T12:54:41.716Z,26.43
2019-02-17T12:57:15.499Z,26.20
2019-02-17T12:59:45.004Z,27.33
2019-02-17T13:02:15.740Z,27.57
2019-02-17T13:04:49.090Z,30.00
2019-02-17T13:07:18.622Z,32.00
2019-02-17T13:09:48.039Z,28.63
2019-02-17T13:12:17.448Z,28.43
2019-02-17T13:14:47.133Z,31.63
2019-02-17T13:17:16.623Z,46.90
2019-02-17T13:19:46.289Z,27.13
2019-02-17T13:22:17.074Z,28.77
2019-02-17T13:24:46.602Z,29.47
2019-02-17T13:27:16.319Z,34.67
2019-02-17T13:29:45.925Z,27.67
2019-02-17T13:32:17.220Z,26.90
2019-02-17T13:34:47.004Z,31.63
2019-02-17T13:37:17.048Z,28.93
2019-02-17T13:39:49.104Z,31.20
2019-02-17T13:42:20.260Z,25.13
2019-02-17T13:47:50.049Z,27.80
2019-02-17T13:50:19.511Z,27.37
2019-02-17T13:52:49.102Z,29.27
2019-02-17T13:55:18.686Z,28.47
2019-02-17T13:57:48.062Z,29.70
2019-02-17T14:00:27.305Z,28.07
2019-02-17T14:02:56.739Z,29.73
2019-02-17T14:05:26.474Z,30.00
2019-02-17T14:07:56.002Z,29.33
2019-02-17T14:10:25.527Z,29.10
2019-02-17T14:12:55.280Z,29.37
2019-02-17T14:15:24.928Z,29.77
2019-02-17T14:17:54.313Z,28.93
2019-02-17T14:20:24.037Z,30.07
2019-02-17T14:22:53.571Z,29.00
2019-02-17T14:25:23.254Z,31.37
2019-02-17T14:27:54.479Z,31.13
2019-02-17T14:30:23.921Z,29.27
2019-02-17T14:32:53.313Z,29.73
2019-02-17T14:35:23.331Z,27.13
2019-02-17T14:37:52.833Z,30.13
2019-02-17T14:40:22.344Z,31.17
2019-02-17T14:42:51.885Z,27.30
2019-02-17T14:45:21.506Z,30.67
2019-02-17T14:47:50.817Z,31.17
2019-02-17T14:50:20.149Z,31.57
2019-02-17T14:52:49.495Z,34.93
2019-02-17T14:55:18.963Z,28.27
2019-02-17T14:57:48.358Z,29.97
2019-02-17T15:00:19.082Z,31.63
2019-02-17T15:02:48.426Z,33.57
2019-02-17T15:05:17.753Z,32.97
2019-02-17T15:07:48.963Z,32.77
2019-02-17T15:10:18.447Z,36.20
2019-02-17T15:12:48.013Z,32.57
2019-02-17T15:15:17.508Z,31.17
2019-02-17T15:17:48.018Z,31.13
2019-02-17T15:20:17.714Z,34.10
2019-02-17T15:22:47.508Z,30.30
2019-02-17T15:25:17.473Z,33.03
2019-02-17T15:27:47.386Z,34.60
2019-02-17T15:30:18.098Z,47.47
2019-02-17T15:32:48.087Z,43.53
2019-02-17T15:35:17.697Z,38.43
2019-02-17T15:37:47.199Z,32.77
2019-02-17T15:40:16.858Z,34.13
2019-02-17T15:42:46.644Z,35.93
2019-02-17T15:45:16.181Z,34.10
2019-02-17T15:47:45.599Z,33.53
2019-02-17T15:50:15.540Z,34.50
2019-02-17T15:52:47.102Z,36.17
2019-02-17T15:55:16.664Z,42.60
2019-02-17T15:57:46.378Z,48.03
2019-02-17T16:00:16.116Z,50.63
2019-02-17T16:02:45.629Z,45.67
2019-02-17T16:05:16.065Z,40.13
2019-02-17T16:07:45.674Z,40.53
2019-02-17T16:10:15.405Z,40.53
2019-02-17T16:12:46.795Z,43.90
2019-02-17T16:15:17.057Z,39.80
2019-02-17T16:17:47.014Z,31.63
2019-02-17T16:20:17.073Z,31.73
2019-02-17T16:22:47.069Z,31.07
2019-02-17T16:25:18.079Z,34.50
2019-02-17T16:27:48.036Z,33.13
2019-02-17T16:30:20.405Z,35.47
2019-02-17T16:32:49.990Z,47.07
2019-02-17T16:35:19.947Z,36.57
2019-02-17T16:37:50.582Z,32.87
2019-02-17T16:40:21.107Z,36.57
2019-02-17T16:42:50.713Z,30.23
2019-02-17T16:45:20.681Z,33.00
2019-02-17T16:47:50.130Z,37.70
2019-02-17T16:50:20.248Z,35.30
2019-02-17T16:52:49.650Z,60.20
2019-02-17T16:55:19.151Z,45.73
2019-02-17T16:57:48.585Z,47.83
2019-02-17T17:00:22.670Z,41.33
2019-02-17T17:02:53.020Z,41.13
2019-02-17T17:05:22.654Z,38.00
2019-02-17T17:07:54.113Z,38.33
2019-02-17T17:10:23.674Z,32.17
2019-02-17T17:12:53.410Z,36.23
2019-02-17T17:15:22.684Z,66.83
2019-02-17T17:17:52.439Z,89.07
2019-02-17T17:20:21.740Z,101.30
2019-02-17T17:22:51.047Z,84.70
2019-02-17T17:25:20.938Z,103.80
2019-02-17T17:27:50.462Z,88.70
2019-02-17T17:30:19.966Z,117.50
2019-02-17T17:32:49.398Z,69.77
2019-02-17T17:35:18.833Z,49.60
2019-02-17T17:37:48.109Z,39.50
2019-02-17T17:40:17.525Z,39.20
2019-02-17T17:42:46.852Z,38.97
2019-02-17T17:45:16.784Z,38.33
2019-02-17T17:47:46.282Z,40.50
2019-02-17T17:50:15.811Z,40.83
2019-02-17T17:52:45.140Z,42.43
2019-02-17T17:55:14.872Z,46.30
2019-02-17T17:57:44.237Z,38.47
2019-02-17T18:00:15.828Z,36.80
2019-02-17T18:02:45.579Z,34.80
2019-02-17T18:05:15.142Z,31.43
2019-02-17T18:07:44.665Z,33.53
2019-02-17T18:10:14.518Z,31.30
2019-02-17T18:12:45.746Z,34.07
2019-02-17T18:15:15.225Z,32.53
2019-02-17T18:17:53.768Z,31.90
2019-02-17T18:20:15.904Z,33.57
2019-02-17T18:22:45.341Z,33.83
2019-02-17T18:25:14.722Z,31.93
2019-02-17T18:27:47.245Z,34.57
2019-02-17T18:30:17.183Z,31.00
2019-02-17T18:32:46.498Z,34.33
2019-02-17T18:35:19.717Z,32.90
2019-02-17T18:37:48.359Z,33.97
2019-02-17T18:40:17.734Z,31.10
2019-02-17T18:42:47.094Z,29.80
2019-02-17T18:45:16.519Z,33.47
2019-02-17T18:47:45.934Z,29.87
2019-02-17T18:50:16.059Z,30.20
2019-02-17T18:52:45.441Z,32.30
2019-02-17T18:55:15.089Z,39.90
2019-02-17T18:57:50.254Z,46.63
2019-02-17T19:00:16.262Z,36.83
2019-02-17T19:02:45.719Z,37.20
2019-02-17T19:05:15.083Z,34.33
2019-02-17T19:07:44.456Z,44.53
2019-02-17T19:10:14.556Z,41.90
2019-02-17T19:12:43.859Z,35.47
2019-02-17T19:15:15.429Z,35.27
2019-02-17T19:17:44.873Z,35.27
2019-02-17T19:20:16.206Z,43.27
2019-02-17T19:22:45.575Z,58.53
2019-02-17T19:25:14.908Z,53.50
2019-02-17T19:27:44.205Z,44.13
2019-02-17T19:30:14.406Z,40.27
2019-02-17T19:32:51.998Z,38.07
2019-02-17T19:35:21.298Z,39.67
2019-02-17T19:37:52.137Z,34.47
2019-02-17T19:40:21.512Z,37.27
2019-02-17T19:42:50.826Z,41.90
2019-02-17T19:45:20.196Z,37.60
2019-02-17T19:47:49.545Z,40.50
2019-02-17T19:50:19.061Z,40.33
2019-02-17T19:52:48.409Z,38.87
2019-02-17T19:55:17.908Z,37.27
2019-02-17T19:57:47.348Z,44.03
2019-02-17T20:00:16.814Z,36.80
2019-02-17T20:03:11.346Z,39.23
2019-02-17T20:05:51.555Z,33.23
2019-02-17T20:08:14.708Z,34.33
2019-02-17T20:10:44.078Z,38.27
2019-02-17T20:13:13.566Z,37.80
2019-02-17T20:15:42.945Z,35.87
2019-02-17T20:18:12.273Z,34.17
2019-02-17T20:20:41.679Z,34.80
2019-02-17T20:23:12.747Z,38.93
2019-02-17T20:25:42.195Z,37.33
2019-02-17T20:28:11.585Z,36.90
2019-02-17T20:30:41.182Z,34.87
2019-02-17T20:33:10.740Z,35.53
2019-02-17T20:35:42.278Z,40.90
2019-02-17T20:38:11.786Z,39.00
2019-02-17T20:40:41.246Z,48.83
2019-02-17T20:43:10.861Z,48.73
2019-02-17T20:45:40.444Z,39.93
2019-02-17T20:48:09.900Z,44.67
2019-02-17T20:50:39.942Z,35.30
2019-02-17T20:53:09.509Z,40.33
2019-02-17T20:55:38.920Z,37.40
2019-02-17T20:58:08.402Z,38.30
2019-02-17T21:00:37.952Z,40.50
2019-02-17T21:03:07.323Z,41.23
2019-02-17T21:05:36.741Z,43.07
2019-02-17T21:08:05.993Z,53.67
2019-02-17T21:10:35.279Z,46.33
2019-02-17T21:13:04.730Z,49.97
2019-02-17T21:15:34.015Z,41.87
2019-02-17T21:18:03.347Z,44.20
2019-02-17T21:20:32.786Z,54.17
2019-02-17T21:23:02.070Z,48.33
2019-02-17T21:25:31.331Z,45.20
2019-02-17T21:28:00.686Z,51.37
2019-02-17T21:30:30.026Z,48.43
2019-02-17T21:32:59.329Z,48.33
2019-02-17T21:35:28.659Z,47.47
2019-02-17T21:37:58.042Z,39.03
2019-02-17T21:40:27.399Z,38.63
2019-02-17T21:42:56.761Z,45.97
2019-02-17T21:45:26.540Z,39.42
2019-02-17T21:47:55.807Z,37.20
2019-02-17T21:50:25.178Z,40.50
2019-02-17T21:52:54.509Z,37.07
2019-02-17T21:55:23.919Z,36.27
2019-02-17T21:57:53.287Z,41.10
2019-02-17T22:00:22.569Z,37.47
2019-02-17T22:02:51.897Z,36.67
2019-02-17T22:05:21.254Z,41.67
2019-02-17T22:07:50.627Z,34.83
2019-02-17T22:10:19.998Z,37.53
2019-02-17T22:12:51.223Z,40.43
2019-02-17T22:15:20.357Z,35.47
2019-02-17T22:17:49.610Z,41.03
2019-02-17T22:20:18.853Z,44.83
2019-02-17T22:22:48.168Z,43.83
2019-02-17T22:25:17.524Z,40.97
2019-02-17T22:27:46.796Z,41.33
2019-02-17T22:30:16.100Z,46.40
2019-02-17T22:32:45.386Z,41.77
2019-02-17T22:35:14.639Z,41.43
2019-02-17T22:37:43.913Z,44.03
2019-02-17T22:40:13.345Z,45.13
2019-02-17T22:42:42.624Z,53.27
2019-02-17T22:45:12.063Z,43.83
2019-02-17T22:47:41.352Z,43.67
2019-02-17T22:50:10.695Z,45.33
2019-02-17T22:52:39.958Z,39.93
2019-02-17T22:55:10.039Z,36.77
2019-02-17T22:57:39.386Z,38.53
2019-02-17T23:00:35.042Z,37.83
2019-02-17T23:03:04.296Z,38.23
2019-02-17T23:05:33.653Z,38.63
2019-02-17T23:08:02.930Z,37.57
2019-02-17T23:10:32.283Z,40.40
2019-02-17T23:13:02.047Z,41.50
2019-02-17T23:15:31.354Z,37.47
2019-02-17T23:18:00.657Z,40.53
2019-02-17T23:20:30.006Z,39.60
2019-02-17T23:22:59.393Z,44.83
2019-02-17T23:25:28.716Z,43.00
2019-02-17T23:27:57.992Z,39.03
2019-02-17T23:30:27.250Z,38.97
2019-02-17T23:32:56.568Z,38.17
2019-02-17T23:35:26.032Z,42.30
2019-02-17T23:37:55.290Z,39.97
2019-02-17T23:40:24.591Z,40.50
2019-02-17T23:42:53.896Z,41.07
2019-02-17T23:45:23.160Z,42.87
2019-02-17T23:47:52.502Z,42.03
2019-02-17T23:50:21.931Z,40.43
2019-02-17T23:52:51.218Z,40.40
2019-02-17T23:55:20.494Z,47.27
2019-02-17T23:57:49.819Z,43.53
